sensor_id;sensor_type;location;lat;lon;timestamp;P1;durP1;ratioP1;P2;durP2;ratioP2
9720;SDS011;4899;42.644;23.366;2024-01-15T00:01:27;24.90;;;14.77;;
9720;SDS011;4899;42.644;23.366;2024-01-15T00:03:52;21.00;;;14.27;;
9720;SDS011;4899;42.644;23.366;2024-01-15T00:06:17;25.90;;;15.93;;
9720;SDS011;4899;42.644;23.366;2024-01-15T00:08:42;25.63;;;16.70;;
9720;SDS011;4899;42.644;23.366;2024-01-15T00:11:08;22.83;;;14.57;;
9720;SDS011;4899;42.644;23.366;2024-01-15T00:13:33;24.10;;;15.10;;
9720;SDS011;4899;42.644;23.366;2024-01-15T00:15:58;23.70;;;15.20;;
9720;SDS011;4899;42.644;23.366;2024-01-15T00:18:24;22.83;;;14.93;;
9720;SDS011;4899;42.644;23.366;2024-01-15T00:20:49;22.97;;;14.90;;
9720;SDS011;4899;42.644;23.366;2024-01-15T00:23:14;28.30;;;15.00;;
9720;SDS011;4899;42.644;23.366;2024-01-15T00:25:40;26.10;;;15.23;;
9720;SDS011;4899;42.644;23.366;2024-01-15T00:28:06;24.63;;;16.37;;
9720;SDS011;4899;42.644;23.366;2024-01-15T00:30:31;27.37;;;16.77;;
9720;SDS011;4899;42.644;23.366;2024-01-15T00:32:56;27.00;;;15.40;;
9720;SDS011;4899;42.644;23.366;2024-01-15T00:35:22;22.63;;;15.23;;
9720;SDS011;4899;42.644;23.366;2024-01-15T00:37:47;22.57;;;15.20;;
9720;SDS011;4899;42.644;23.366;2024-01-15T00:40:12;28.57;;;16.97;;
9720;SDS011;4899;42.644;23.366;2024-01-15T00:42:38;24.03;;;14.87;;
9720;SDS011;4899;42.644;23.366;2024-01-15T00:45:03;27.63;;;17.43;;
9720;SDS011;4899;42.644;23.366;2024-01-15T00:47:30;28.37;;;17.30;;
9720;SDS011;4899;42.644;23.366;2024-01-15T00:49:55;25.90;;;15.57;;
9720;SDS011;4899;42.644;23.366;2024-01-15T00:52:20;27.07;;;16.63;;
9720;SDS011;4899;42.644;23.366;2024-01-15T00:54:46;23.67;;;15.27;;
9720;SDS011;4899;42.644;23.366;2024-01-15T00:57:11;19.10;;;12.77;;
9720;SDS011;4899;42.644;23.366;2024-01-15T00:59:36;23.17;;;15.13;;
9720;SDS011;4899;42.644;23.366;2024-01-15T01:02:02;27.70;;;18.20;;
9720;SDS011;4899;42.644;23.366;2024-01-15T01:04:28;27.93;;;18.07;;
9720;SDS011;4899;42.644;23.366;2024-01-15T01:06:53;34.40;;;20.17;;
9720;SDS011;4899;42.644;23.366;2024-01-15T01:09:19;26.13;;;15.90;;
9720;SDS011;4899;42.644;23.366;2024-01-15T01:11:44;30.37;;;18.00;;
9720;SDS011;4899;42.644;23.366;2024-01-15T01:14:09;28.07;;;17.43;;
9720;SDS011;4899;42.644;23.366;2024-01-15T01:16:34;25.80;;;15.93;;
9720;SDS011;4899;42.644;23.366;2024-01-15T01:19:04;24.53;;;14.23;;
9720;SDS011;4899;42.644;23.366;2024-01-15T01:21:29;21.90;;;14.97;;
9720;SDS011;4899;42.644;23.366;2024-01-15T01:23:55;25.87;;;15.57;;
9720;SDS011;4899;42.644;23.366;2024-01-15T01:26:20;25.03;;;15.77;;
9720;SDS011;4899;42.644;23.366;2024-01-15T01:28:45;29.70;;;16.63;;
9720;SDS011;4899;42.644;23.366;2024-01-15T01:31:10;25.63;;;16.20;;
9720;SDS011;4899;42.644;23.366;2024-01-15T01:33:37;28.10;;;16.67;;
9720;SDS011;4899;42.644;23.366;2024-01-15T01:38:47;27.33;;;15.43;;
9720;SDS011;4899;42.644;23.366;2024-01-15T01:41:12;23.80;;;15.27;;
9720;SDS011;4899;42.644;23.366;2024-01-15T01:43:37;25.43;;;16.23;;
9720;SDS011;4899;42.644;23.366;2024-01-15T01:46:03;26.43;;;15.20;;
9720;SDS011;4899;42.644;23.366;2024-01-15T01:48:28;29.83;;;15.47;;
9720;SDS011;4899;42.644;23.366;2024-01-15T01:50:55;26.30;;;16.70;;
9720;SDS011;4899;42.644;23.366;2024-01-15T01:53:22;23.10;;;15.27;;
9720;SDS011;4899;42.644;23.366;2024-01-15T01:55:48;26.67;;;15.67;;
9720;SDS011;4899;42.644;23.366;2024-01-15T01:58:14;28.23;;;16.47;;
9720;SDS011;4899;42.644;23.366;2024-01-15T02:00:39;26.63;;;14.93;;
9720;SDS011;4899;42.644;23.366;2024-01-15T02:03:04;27.83;;;16.30;;
9720;SDS011;4899;42.644;23.366;2024-01-15T02:05:30;24.83;;;15.13;;
9720;SDS011;4899;42.644;23.366;2024-01-15T02:07:56;27.73;;;16.07;;
9720;SDS011;4899;42.644;23.366;2024-01-15T02:10:21;23.23;;;14.67;;
9720;SDS011;4899;42.644;23.366;2024-01-15T02:12:46;27.27;;;15.10;;
9720;SDS011;4899;42.644;23.366;2024-01-15T02:15:13;25.53;;;15.70;;
9720;SDS011;4899;42.644;23.366;2024-01-15T02:20:23;23.17;;;14.93;;
9720;SDS011;4899;42.644;23.366;2024-01-15T02:22:49;27.30;;;15.07;;
9720;SDS011;4899;42.644;23.366;2024-01-15T02:25:14;24.13;;;14.97;;
9720;SDS011;4899;42.644;23.366;2024-01-15T02:27:39;25.07;;;15.23;;
9720;SDS011;4899;42.644;23.366;2024-01-15T02:30:05;25.77;;;14.90;;
9720;SDS011;4899;42.644;23.366;2024-01-15T02:32:31;23.33;;;14.03;;
9720;SDS011;4899;42.644;23.366;2024-01-15T02:34:56;21.70;;;12.23;;
9720;SDS011;4899;42.644;23.366;2024-01-15T02:37:21;19.60;;;12.63;;
9720;SDS011;4899;42.644;23.366;2024-01-15T02:39:47;20.27;;;11.63;;
9720;SDS011;4899;42.644;23.366;2024-01-15T02:42:12;18.57;;;12.90;;
9720;SDS011;4899;42.644;23.366;2024-01-15T02:44:37;19.30;;;12.67;;
9720;SDS011;4899;42.644;23.366;2024-01-15T02:47:03;17.77;;;11.70;;
9720;SDS011;4899;42.644;23.366;2024-01-15T02:49:28;20.70;;;12.83;;
9720;SDS011;4899;42.644;23.366;2024-01-15T02:51:53;19.47;;;13.10;;
9720;SDS011;4899;42.644;23.366;2024-01-15T02:54:19;19.70;;;12.43;;
9720;SDS011;4899;42.644;23.366;2024-01-15T02:56:44;19.43;;;12.73;;
9720;SDS011;4899;42.644;23.366;2024-01-15T02:59:09;18.70;;;12.13;;
9720;SDS011;4899;42.644;23.366;2024-01-15T03:01:35;19.77;;;12.00;;
9720;SDS011;4899;42.644;23.366;2024-01-15T03:04:00;21.23;;;12.83;;
9720;SDS011;4899;42.644;23.366;2024-01-15T03:06:25;22.83;;;13.33;;
9720;SDS011;4899;42.644;23.366;2024-01-15T03:08:51;22.33;;;14.43;;
9720;SDS011;4899;42.644;23.366;2024-01-15T03:11:16;28.33;;;15.57;;
9720;SDS011;4899;42.644;23.366;2024-01-15T03:13:41;23.57;;;14.33;;
9720;SDS011;4899;42.644;23.366;2024-01-15T03:16:07;24.33;;;15.27;;
9720;SDS011;4899;42.644;23.366;2024-01-15T03:18:32;21.60;;;15.03;;
9720;SDS011;4899;42.644;23.366;2024-01-15T03:20:58;24.97;;;15.87;;
9720;SDS011;4899;42.644;23.366;2024-01-15T03:23:23;23.77;;;14.97;;
9720;SDS011;4899;42.644;23.366;2024-01-15T03:25:48;22.23;;;15.33;;
9720;SDS011;4899;42.644;23.366;2024-01-15T03:28:14;21.73;;;14.13;;
9720;SDS011;4899;42.644;23.366;2024-01-15T03:30:39;21.83;;;14.07;;
9720;SDS011;4899;42.644;23.366;2024-01-15T03:33:04;21.57;;;13.77;;
9720;SDS011;4899;42.644;23.366;2024-01-15T03:35:30;30.77;;;18.43;;
9720;SDS011;4899;42.644;23.366;2024-01-15T03:37:56;29.97;;;17.27;;
9720;SDS011;4899;42.644;23.366;2024-01-15T03:40:21;30.90;;;14.97;;
9720;SDS011;4899;42.644;23.366;2024-01-15T03:42:46;30.50;;;19.33;;
9720;SDS011;4899;42.644;23.366;2024-01-15T03:45:12;32.77;;;17.93;;
9720;SDS011;4899;42.644;23.366;2024-01-15T03:47:37;27.80;;;16.60;;
9720;SDS011;4899;42.644;23.366;2024-01-15T03:50:02;34.00;;;19.97;;
9720;SDS011;4899;42.644;23.366;2024-01-15T03:52:28;31.63;;;17.33;;
9720;SDS011;4899;42.644;23.366;2024-01-15T03:54:53;28.50;;;17.27;;
9720;SDS011;4899;42.644;23.366;2024-01-15T03:57:18;31.73;;;19.80;;
9720;SDS011;4899;42.644;23.366;2024-01-15T03:59:44;32.03;;;19.47;;
9720;SDS011;4899;42.644;23.366;2024-01-15T04:02:12;27.87;;;18.30;;
9720;SDS011;4899;42.644;23.366;2024-01-15T04:04:40;35.53;;;18.87;;
9720;SDS011;4899;42.644;23.366;2024-01-15T04:07:05;32.13;;;19.30;;
9720;SDS011;4899;42.644;23.366;2024-01-15T04:09:30;28.90;;;18.67;;
9720;SDS011;4899;42.644;23.366;2024-01-15T04:11:56;35.37;;;19.53;;
9720;SDS011;4899;42.644;23.366;2024-01-15T04:14:21;29.13;;;18.50;;
9720;SDS011;4899;42.644;23.366;2024-01-15T04:16:46;31.43;;;18.87;;
9720;SDS011;4899;42.644;23.366;2024-01-15T04:19:12;25.33;;;17.93;;
9720;SDS011;4899;42.644;23.366;2024-01-15T04:21:37;27.53;;;17.13;;
9720;SDS011;4899;42.644;23.366;2024-01-15T04:24:03;28.77;;;18.17;;
9720;SDS011;4899;42.644;23.366;2024-01-15T04:26:29;27.17;;;18.77;;
9720;SDS011;4899;42.644;23.366;2024-01-15T04:28:54;34.30;;;19.67;;
9720;SDS011;4899;42.644;23.366;2024-01-15T04:31:23;30.30;;;19.50;;
9720;SDS011;4899;42.644;23.366;2024-01-15T04:33:48;33.10;;;20.57;;
9720;SDS011;4899;42.644;23.366;2024-01-15T04:36:13;31.10;;;19.40;;
9720;SDS011;4899;42.644;23.366;2024-01-15T04:38:39;30.47;;;18.33;;
9720;SDS011;4899;42.644;23.366;2024-01-15T04:41:04;28.23;;;18.43;;
9720;SDS011;4899;42.644;23.366;2024-01-15T04:43:29;33.80;;;19.07;;
9720;SDS011;4899;42.644;23.366;2024-01-15T04:45:55;28.57;;;18.13;;
9720;SDS011;4899;42.644;23.366;2024-01-15T04:48:20;28.97;;;17.50;;
9720;SDS011;4899;42.644;23.366;2024-01-15T04:50:47;25.13;;;16.07;;
9720;SDS011;4899;42.644;23.366;2024-01-15T04:53:13;27.43;;;16.70;;
9720;SDS011;4899;42.644;23.366;2024-01-15T04:55:38;32.10;;;17.77;;
9720;SDS011;4899;42.644;23.366;2024-01-15T04:58:04;24.13;;;16.37;;
9720;SDS011;4899;42.644;23.366;2024-01-15T05:00:29;29.53;;;17.30;;
9720;SDS011;4899;42.644;23.366;2024-01-15T05:02:54;25.93;;;16.33;;
9720;SDS011;4899;42.644;23.366;2024-01-15T05:05:21;25.63;;;16.20;;
9720;SDS011;4899;42.644;23.366;2024-01-15T05:07:46;25.07;;;16.13;;
9720;SDS011;4899;42.644;23.366;2024-01-15T05:10:12;25.23;;;17.03;;
9720;SDS011;4899;42.644;23.366;2024-01-15T05:12:37;30.40;;;16.30;;
9720;SDS011;4899;42.644;23.366;2024-01-15T05:15:03;27.67;;;17.00;;
9720;SDS011;4899;42.644;23.366;2024-01-15T05:17:28;27.63;;;16.63;;
9720;SDS011;4899;42.644;23.366;2024-01-15T05:19:53;23.97;;;15.63;;
9720;SDS011;4899;42.644;23.366;2024-01-15T05:22:19;25.00;;;15.47;;
9720;SDS011;4899;42.644;23.366;2024-01-15T05:24:46;24.47;;;15.27;;
9720;SDS011;4899;42.644;23.366;2024-01-15T05:27:11;21.00;;;13.80;;
9720;SDS011;4899;42.644;23.366;2024-01-15T05:29:36;35.00;;;18.80;;
9720;SDS011;4899;42.644;23.366;2024-01-15T05:32:02;29.80;;;19.07;;
9720;SDS011;4899;42.644;23.366;2024-01-15T05:34:27;29.87;;;16.70;;
9720;SDS011;4899;42.644;23.366;2024-01-15T05:36:52;33.57;;;18.77;;
9720;SDS011;4899;42.644;23.366;2024-01-15T05:39:18;33.63;;;21.37;;
9720;SDS011;4899;42.644;23.366;2024-01-15T05:41:43;30.47;;;19.83;;
9720;SDS011;4899;42.644;23.366;2024-01-15T05:44:08;32.40;;;19.27;;
9720;SDS011;4899;42.644;23.366;2024-01-15T05:46:35;32.63;;;19.90;;
9720;SDS011;4899;42.644;23.366;2024-01-15T05:49:00;35.43;;;21.70;;
9720;SDS011;4899;42.644;23.366;2024-01-15T05:56:28;32.33;;;20.57;;
9720;SDS011;4899;42.644;23.366;2024-01-15T05:58:53;34.47;;;20.17;;
9720;SDS011;4899;42.644;23.366;2024-01-15T06:01:18;31.83;;;21.47;;
9720;SDS011;4899;42.644;23.366;2024-01-15T06:03:44;39.43;;;24.07;;
9720;SDS011;4899;42.644;23.366;2024-01-15T06:06:09;35.83;;;23.00;;
9720;SDS011;4899;42.644;23.366;2024-01-15T06:08:34;38.53;;;23.60;;
9720;SDS011;4899;42.644;23.366;2024-01-15T06:11:00;40.37;;;23.07;;
9720;SDS011;4899;42.644;23.366;2024-01-15T06:13:25;38.23;;;23.27;;
9720;SDS011;4899;42.644;23.366;2024-01-15T06:15:50;36.00;;;22.60;;
9720;SDS011;4899;42.644;23.366;2024-01-15T06:18:16;34.83;;;22.13;;
9720;SDS011;4899;42.644;23.366;2024-01-15T06:20:41;38.07;;;23.23;;
9720;SDS011;4899;42.644;23.366;2024-01-15T06:23:06;39.73;;;23.43;;
9720;SDS011;4899;42.644;23.366;2024-01-15T06:25:32;36.67;;;23.53;;
9720;SDS011;4899;42.644;23.366;2024-01-15T06:27:57;44.93;;;27.37;;
9720;SDS011;4899;42.644;23.366;2024-01-15T06:30:22;33.93;;;22.67;;
9720;SDS011;4899;42.644;23.366;2024-01-15T06:32:48;40.60;;;23.50;;
9720;SDS011;4899;42.644;23.366;2024-01-15T06:35:13;34.13;;;20.20;;
9720;SDS011;4899;42.644;23.366;2024-01-15T06:37:39;32.47;;;21.00;;
9720;SDS011;4899;42.644;23.366;2024-01-15T06:40:04;33.97;;;21.67;;
9720;SDS011;4899;42.644;23.366;2024-01-15T06:42:30;29.57;;;20.47;;
9720;SDS011;4899;42.644;23.366;2024-01-15T06:44:56;32.70;;;21.53;;
9720;SDS011;4899;42.644;23.366;2024-01-15T06:47:21;34.53;;;22.33;;
9720;SDS011;4899;42.644;23.366;2024-01-15T06:49:46;31.83;;;20.43;;
9720;SDS011;4899;42.644;23.366;2024-01-15T06:52:12;31.13;;;21.43;;
9720;SDS011;4899;42.644;23.366;2024-01-15T06:54:37;30.47;;;20.50;;
9720;SDS011;4899;42.644;23.366;2024-01-15T06:57:03;30.73;;;18.67;;
9720;SDS011;4899;42.644;23.366;2024-01-15T06:59:28;30.23;;;20.60;;
9720;SDS011;4899;42.644;23.366;2024-01-15T07:01:53;45.83;;;27.17;;
9720;SDS011;4899;42.644;23.366;2024-01-15T07:04:20;36.87;;;24.57;;
9720;SDS011;4899;42.644;23.366;2024-01-15T07:06:45;47.27;;;29.03;;
9720;SDS011;4899;42.644;23.366;2024-01-15T07:09:10;48.50;;;28.33;;
9720;SDS011;4899;42.644;23.366;2024-01-15T07:11:36;45.47;;;27.10;;
9720;SDS011;4899;42.644;23.366;2024-01-15T07:14:01;52.60;;;31.57;;
9720;SDS011;4899;42.644;23.366;2024-01-15T07:16:26;44.17;;;28.33;;
9720;SDS011;4899;42.644;23.366;2024-01-15T07:18:52;42.17;;;29.77;;
9720;SDS011;4899;42.644;23.366;2024-01-15T07:21:17;48.27;;;29.83;;
9720;SDS011;4899;42.644;23.366;2024-01-15T07:23:42;46.30;;;31.50;;
9720;SDS011;4899;42.644;23.366;2024-01-15T07:26:08;50.20;;;29.70;;
9720;SDS011;4899;42.644;23.366;2024-01-15T07:28:33;49.57;;;32.00;;
9720;SDS011;4899;42.644;23.366;2024-01-15T07:30:58;44.10;;;28.60;;
9720;SDS011;4899;42.644;23.366;2024-01-15T07:33:26;47.43;;;29.37;;
9720;SDS011;4899;42.644;23.366;2024-01-15T07:35:51;43.07;;;28.37;;
9720;SDS011;4899;42.644;23.366;2024-01-15T07:38:16;44.47;;;28.97;;
9720;SDS011;4899;42.644;23.366;2024-01-15T07:40:42;45.13;;;29.43;;
9720;SDS011;4899;42.644;23.366;2024-01-15T07:43:07;40.37;;;28.23;;
9720;SDS011;4899;42.644;23.366;2024-01-15T07:45:33;43.50;;;28.20;;
9720;SDS011;4899;42.644;23.366;2024-01-15T07:47:58;42.57;;;29.27;;
9720;SDS011;4899;42.644;23.366;2024-01-15T07:50:23;43.40;;;28.27;;
9720;SDS011;4899;42.644;23.366;2024-01-15T07:52:49;45.10;;;28.97;;
9720;SDS011;4899;42.644;23.366;2024-01-15T07:55:14;40.97;;;25.90;;
9720;SDS011;4899;42.644;23.366;2024-01-15T07:57:39;40.10;;;25.37;;
9720;SDS011;4899;42.644;23.366;2024-01-15T08:00:05;40.03;;;26.40;;
9720;SDS011;4899;42.644;23.366;2024-01-15T08:02:30;38.33;;;25.70;;
9720;SDS011;4899;42.644;23.366;2024-01-15T08:04:57;40.27;;;26.63;;
9720;SDS011;4899;42.644;23.366;2024-01-15T08:07:23;40.07;;;26.97;;
9720;SDS011;4899;42.644;23.366;2024-01-15T08:09:49;35.53;;;25.70;;
9720;SDS011;4899;42.644;23.366;2024-01-15T08:12:14;37.83;;;26.57;;
9720;SDS011;4899;42.644;23.366;2024-01-15T08:14:40;37.37;;;24.47;;
9720;SDS011;4899;42.644;23.366;2024-01-15T08:17:05;32.53;;;21.57;;
9720;SDS011;4899;42.644;23.366;2024-01-15T08:19:31;32.27;;;20.23;;
9720;SDS011;4899;42.644;23.366;2024-01-15T08:21:56;28.93;;;18.90;;
9720;SDS011;4899;42.644;23.366;2024-01-15T08:24:21;26.43;;;14.57;;
9720;SDS011;4899;42.644;23.366;2024-01-15T08:26:47;25.13;;;18.50;;
9720;SDS011;4899;42.644;23.366;2024-01-15T08:29:12;35.10;;;24.27;;
9720;SDS011;4899;42.644;23.366;2024-01-15T08:31:38;34.83;;;23.93;;
9720;SDS011;4899;42.644;23.366;2024-01-15T08:34:03;39.03;;;24.67;;
9720;SDS011;4899;42.644;23.366;2024-01-15T08:36:28;36.20;;;23.53;;
9720;SDS011;4899;42.644;23.366;2024-01-15T08:38:57;34.07;;;22.87;;
9720;SDS011;4899;42.644;23.366;2024-01-15T08:41:23;32.13;;;22.93;;
9720;SDS011;4899;42.644;23.366;2024-01-15T08:43:49;42.43;;;25.97;;
9720;SDS011;4899;42.644;23.366;2024-01-15T08:46:14;35.87;;;23.53;;
9720;SDS011;4899;42.644;23.366;2024-01-15T08:48:39;37.83;;;24.87;;
9720;SDS011;4899;42.644;23.366;2024-01-15T08:51:05;30.47;;;22.10;;
9720;SDS011;4899;42.644;23.366;2024-01-15T08:53:30;35.07;;;22.80;;
9720;SDS011;4899;42.644;23.366;2024-01-15T08:55:55;29.07;;;19.77;;
9720;SDS011;4899;42.644;23.366;2024-01-15T08:58:21;29.03;;;18.17;;
9720;SDS011;4899;42.644;23.366;2024-01-15T09:00:46;26.83;;;16.10;;
9720;SDS011;4899;42.644;23.366;2024-01-15T09:03:11;32.03;;;20.67;;
9720;SDS011;4899;42.644;23.366;2024-01-15T09:05:37;29.27;;;19.47;;
9720;SDS011;4899;42.644;23.366;2024-01-15T09:08:02;38.43;;;23.03;;
9720;SDS011;4899;42.644;23.366;2024-01-15T09:10:28;34.93;;;19.50;;
9720;SDS011;4899;42.644;23.366;2024-01-15T09:12:53;32.53;;;18.20;;
9720;SDS011;4899;42.644;23.366;2024-01-15T09:15:18;32.77;;;17.63;;
9720;SDS011;4899;42.644;23.366;2024-01-15T09:17:45;30.27;;;18.33;;
9720;SDS011;4899;42.644;23.366;2024-01-15T09:20:11;31.30;;;17.57;;
9720;SDS011;4899;42.644;23.366;2024-01-15T09:22:39;25.20;;;15.90;;
9720;SDS011;4899;42.644;23.366;2024-01-15T09:25:08;29.93;;;17.07;;
9720;SDS011;4899;42.644;23.366;2024-01-15T09:27:34;27.47;;;17.60;;
9720;SDS011;4899;42.644;23.366;2024-01-15T09:30:00;28.50;;;17.57;;
9720;SDS011;4899;42.644;23.366;2024-01-15T09:32:25;25.80;;;18.43;;
9720;SDS011;4899;42.644;23.366;2024-01-15T09:34:50;26.40;;;19.63;;
9720;SDS011;4899;42.644;23.366;2024-01-15T09:37:16;28.83;;;20.93;;
9720;SDS011;4899;42.644;23.366;2024-01-15T09:39:41;38.67;;;25.57;;
9720;SDS011;4899;42.644;23.366;2024-01-15T09:42:06;59.07;;;40.37;;
9720;SDS011;4899;42.644;23.366;2024-01-15T09:44:32;58.33;;;39.03;;
9720;SDS011;4899;42.644;23.366;2024-01-15T09:46:58;58.33;;;41.33;;
9720;SDS011;4899;42.644;23.366;2024-01-15T09:49:24;56.00;;;39.07;;
9720;SDS011;4899;42.644;23.366;2024-01-15T09:51:49;55.60;;;39.17;;
9720;SDS011;4899;42.644;23.366;2024-01-15T09:54:15;55.57;;;37.27;;
9720;SDS011;4899;42.644;23.366;2024-01-15T09:56:42;49.57;;;36.10;;
9720;SDS011;4899;42.644;23.366;2024-01-15T09:59:07;51.97;;;34.70;;
9720;SDS011;4899;42.644;23.366;2024-01-15T10:01:33;48.77;;;34.87;;
9720;SDS011;4899;42.644;23.366;2024-01-15T10:03:59;50.53;;;33.37;;
9720;SDS011;4899;42.644;23.366;2024-01-15T10:06:25;47.13;;;31.70;;
9720;SDS011;4899;42.644;23.366;2024-01-15T10:08:52;41.33;;;26.73;;
9720;SDS011;4899;42.644;23.366;2024-01-15T10:11:18;39.33;;;26.93;;
9720;SDS011;4899;42.644;23.366;2024-01-15T10:13:44;42.03;;;26.83;;
9720;SDS011;4899;42.644;23.366;2024-01-15T10:16:10;34.87;;;23.70;;
9720;SDS011;4899;42.644;23.366;2024-01-15T10:18:36;33.13;;;21.03;;
9720;SDS011;4899;42.644;23.366;2024-01-15T10:21:02;33.67;;;21.53;;
9720;SDS011;4899;42.644;23.366;2024-01-15T10:23:28;31.47;;;21.87;;
9720;SDS011;4899;42.644;23.366;2024-01-15T10:25:56;32.67;;;22.67;;
9720;SDS011;4899;42.644;23.366;2024-01-15T10:28:21;32.10;;;22.03;;
9720;SDS011;4899;42.644;23.366;2024-01-15T10:30:47;34.33;;;25.23;;
9720;SDS011;4899;42.644;23.366;2024-01-15T10:33:16;32.30;;;21.50;;
9720;SDS011;4899;42.644;23.366;2024-01-15T10:35:46;30.90;;;19.53;;
9720;SDS011;4899;42.644;23.366;2024-01-15T10:38:12;34.90;;;21.40;;
9720;SDS011;4899;42.644;23.366;2024-01-15T10:40:37;28.80;;;18.87;;
9720;SDS011;4899;42.644;23.366;2024-01-15T10:43:03;27.03;;;18.53;;
9720;SDS011;4899;42.644;23.366;2024-01-15T10:45:28;28.90;;;18.47;;
9720;SDS011;4899;42.644;23.366;2024-01-15T10:47:54;27.60;;;19.90;;
9720;SDS011;4899;42.644;23.366;2024-01-15T10:50:19;24.33;;;18.83;;
9720;SDS011;4899;42.644;23.366;2024-01-15T10:52:45;26.70;;;18.93;;
9720;SDS011;4899;42.644;23.366;2024-01-15T10:55:11;26.53;;;18.47;;
9720;SDS011;4899;42.644;23.366;2024-01-15T10:57:37;25.13;;;18.67;;
9720;SDS011;4899;42.644;23.366;2024-01-15T11:00:03;26.07;;;16.80;;
9720;SDS011;4899;42.644;23.366;2024-01-15T11:02:31;26.30;;;17.60;;
9720;SDS011;4899;42.644;23.366;2024-01-15T11:04:56;26.37;;;17.77;;
9720;SDS011;4899;42.644;23.366;2024-01-15T11:07:22;27.50;;;17.63;;
9720;SDS011;4899;42.644;23.366;2024-01-15T11:09:49;23.60;;;17.57;;
9720;SDS011;4899;42.644;23.366;2024-01-15T11:12:15;24.67;;;17.87;;
9720;SDS011;4899;42.644;23.366;2024-01-15T11:14:45;23.10;;;16.67;;
9720;SDS011;4899;42.644;23.366;2024-01-15T11:17:11;22.80;;;17.83;;
9720;SDS011;4899;42.644;23.366;2024-01-15T11:19:47;23.23;;;17.37;;
9720;SDS011;4899;42.644;23.366;2024-01-15T11:27:47;31.13;;;22.20;;
9720;SDS011;4899;42.644;23.366;2024-01-15T11:30:19;35.00;;;21.83;;
9720;SDS011;4899;42.644;23.366;2024-01-15T11:32:45;27.83;;;21.63;;
9720;SDS011;4899;42.644;23.366;2024-01-15T11:35:11;28.40;;;19.87;;
9720;SDS011;4899;42.644;23.366;2024-01-15T11:40:19;29.00;;;20.57;;
9720;SDS011;4899;42.644;23.366;2024-01-15T11:42:45;30.17;;;20.20;;
9720;SDS011;4899;42.644;23.366;2024-01-15T11:45:10;27.17;;;20.30;;
9720;SDS011;4899;42.644;23.366;2024-01-15T11:50:13;27.33;;;20.20;;
9720;SDS011;4899;42.644;23.366;2024-01-15T11:52:39;25.30;;;19.13;;
9720;SDS011;4899;42.644;23.366;2024-01-15T11:55:10;27.40;;;20.83;;
9720;SDS011;4899;42.644;23.366;2024-01-15T12:00:02;25.90;;;20.47;;
9720;SDS011;4899;42.644;23.366;2024-01-15T12:02:28;27.90;;;20.70;;
9720;SDS011;4899;42.644;23.366;2024-01-15T12:04:54;26.97;;;20.20;;
9720;SDS011;4899;42.644;23.366;2024-01-15T12:07:19;35.23;;;22.87;;
9720;SDS011;4899;42.644;23.366;2024-01-15T12:09:44;28.30;;;21.90;;
9720;SDS011;4899;42.644;23.366;2024-01-15T12:12:11;27.37;;;21.10;;
9720;SDS011;4899;42.644;23.366;2024-01-15T12:14:39;25.57;;;21.03;;
9720;SDS011;4899;42.644;23.366;2024-01-15T12:17:05;25.87;;;21.83;;
9720;SDS011;4899;42.644;23.366;2024-01-15T12:19:30;32.17;;;22.03;;
9720;SDS011;4899;42.644;23.366;2024-01-15T12:21:55;26.90;;;20.27;;
9720;SDS011;4899;42.644;23.366;2024-01-15T12:24:21;31.53;;;24.07;;
9720;SDS011;4899;42.644;23.366;2024-01-15T12:26:46;37.07;;;24.73;;
9720;SDS011;4899;42.644;23.366;2024-01-15T12:29:12;35.70;;;24.90;;
9720;SDS011;4899;42.644;23.366;2024-01-15T12:31:37;37.20;;;23.07;;
9720;SDS011;4899;42.644;23.366;2024-01-15T12:34:02;32.60;;;23.93;;
9720;SDS011;4899;42.644;23.366;2024-01-15T12:36:31;31.43;;;22.57;;
9720;SDS011;4899;42.644;23.366;2024-01-15T12:38:59;30.10;;;23.17;;
9720;SDS011;4899;42.644;23.366;2024-01-15T12:41:25;31.23;;;23.03;;
9720;SDS011;4899;42.644;23.366;2024-01-15T12:43:50;35.53;;;22.93;;
9720;SDS011;4899;42.644;23.366;2024-01-15T12:46:15;27.83;;;19.87;;
9720;SDS011;4899;42.644;23.366;2024-01-15T12:48:41;32.03;;;21.97;;
9720;SDS011;4899;42.644;23.366;2024-01-15T12:51:06;32.43;;;20.67;;
9720;SDS011;4899;42.644;23.366;2024-01-15T12:53:33;34.33;;;21.30;;
9720;SDS011;4899;42.644;23.366;2024-01-15T12:55:58;27.13;;;19.00;;
9720;SDS011;4899;42.644;23.366;2024-01-15T12:58:23;25.97;;;19.37;;
9720;SDS011;4899;42.644;23.366;2024-01-15T13:00:48;28.37;;;19.80;;
9720;SDS011;4899;42.644;23.366;2024-01-15T13:03:14;29.93;;;20.30;;
9720;SDS011;4899;42.644;23.366;2024-01-15T13:05:40;34.20;;;23.57;;
9720;SDS011;4899;42.644;23.366;2024-01-15T13:08:06;29.67;;;20.73;;
9720;SDS011;4899;42.644;23.366;2024-01-15T13:10:31;28.47;;;20.83;;
9720;SDS011;4899;42.644;23.366;2024-01-15T13:12:56;29.30;;;22.57;;
9720;SDS011;4899;42.644;23.366;2024-01-15T13:15:22;27.30;;;21.43;;
9720;SDS011;4899;42.644;23.366;2024-01-15T13:17:47;30.13;;;20.27;;
9720;SDS011;4899;42.644;23.366;2024-01-15T13:20:12;31.97;;;24.73;;
9720;SDS011;4899;42.644;23.366;2024-01-15T13:22:38;28.67;;;21.57;;
9720;SDS011;4899;42.644;23.366;2024-01-15T13:25:05;30.80;;;21.90;;
9720;SDS011;4899;42.644;23.366;2024-01-15T13:27:32;33.63;;;21.07;;
9720;SDS011;4899;42.644;23.366;2024-01-15T13:29:59;27.07;;;20.53;;
9720;SDS011;4899;42.644;23.366;2024-01-15T13:32:25;27.37;;;20.33;;
9720;SDS011;4899;42.644;23.366;2024-01-15T13:34:51;33.80;;;21.50;;
9720;SDS011;4899;42.644;23.366;2024-01-15T13:37:16;26.50;;;19.77;;
9720;SDS011;4899;42.644;23.366;2024-01-15T13:39:42;34.87;;;21.20;;
9720;SDS011;4899;42.644;23.366;2024-01-15T13:42:07;28.60;;;21.23;;
9720;SDS011;4899;42.644;23.366;2024-01-15T13:44:32;36.03;;;21.43;;
9720;SDS011;4899;42.644;23.366;2024-01-15T13:46:57;33.27;;;22.03;;
9720;SDS011;4899;42.644;23.366;2024-01-15T13:49:23;36.27;;;21.20;;
9720;SDS011;4899;42.644;23.366;2024-01-15T13:51:49;30.37;;;20.73;;
9720;SDS011;4899;42.644;23.366;2024-01-15T13:54:15;28.43;;;20.60;;
9720;SDS011;4899;42.644;23.366;2024-01-15T13:56:40;29.97;;;21.23;;
9720;SDS011;4899;42.644;23.366;2024-01-15T13:59:06;34.70;;;21.67;;
9720;SDS011;4899;42.644;23.366;2024-01-15T14:01:32;34.40;;;20.93;;
9720;SDS011;4899;42.644;23.366;2024-01-15T14:03:58;30.67;;;21.30;;
9720;SDS011;4899;42.644;23.366;2024-01-15T14:06:23;35.73;;;21.87;;
9720;SDS011;4899;42.644;23.366;2024-01-15T14:08:49;34.00;;;22.23;;
9720;SDS011;4899;42.644;23.366;2024-01-15T14:11:14;33.50;;;20.70;;
9720;SDS011;4899;42.644;23.366;2024-01-15T14:13:40;27.83;;;19.70;;
9720;SDS011;4899;42.644;23.366;2024-01-15T14:16:05;30.53;;;20.00;;
9720;SDS011;4899;42.644;23.366;2024-01-15T14:18:30;27.77;;;20.07;;
9720;SDS011;4899;42.644;23.366;2024-01-15T14:20:56;27.20;;;20.27;;
9720;SDS011;4899;42.644;23.366;2024-01-15T14:23:21;32.33;;;20.60;;
9720;SDS011;4899;42.644;23.366;2024-01-15T14:25:47;31.40;;;21.50;;
9720;SDS011;4899;42.644;23.366;2024-01-15T14:28:12;36.87;;;21.23;;
9720;SDS011;4899;42.644;23.366;2024-01-15T14:30:37;34.90;;;22.10;;
9720;SDS011;4899;42.644;23.366;2024-01-15T14:33:02;31.70;;;21.57;;
9720;SDS011;4899;42.644;23.366;2024-01-15T14:35:28;33.63;;;22.17;;
9720;SDS011;4899;42.644;23.366;2024-01-15T14:37:53;28.73;;;21.13;;
9720;SDS011;4899;42.644;23.366;2024-01-15T14:40:19;33.47;;;20.97;;
9720;SDS011;4899;42.644;23.366;2024-01-15T14:42:44;30.60;;;20.80;;
9720;SDS011;4899;42.644;23.366;2024-01-15T14:45:09;32.63;;;21.77;;
9720;SDS011;4899;42.644;23.366;2024-01-15T14:47:39;33.70;;;21.03;;